createdAt,value
2018-07-11T00:00:33.175Z,1017.31
2018-07-11T00:01:33.087Z,1017.31
2018-07-11T00:02:33.109Z,1017.28
2018-07-11T00:03:32.917Z,1017.3
2018-07-11T00:04:32.812Z,1017.26
2018-07-11T00:05:33.107Z,1017.3
2018-07-11T00:06:33.057Z,1017.29
2018-07-11T00:07:32.995Z,1017.28
2018-07-11T00:08:33.347Z,1017.28
2018-07-11T00:09:33.040Z,1017.3
2018-07-11T00:10:33.172Z,1017.3
2018-07-11T00:11:33.051Z,1017.31
2018-07-11T00:12:33.032Z,1017.32
2018-07-11T00:13:32.882Z,1017.3
2018-07-11T00:14:33.014Z,1017.31
2018-07-11T00:15:32.980Z,1017.31
2018-07-11T00:16:32.996Z,1017.27
2018-07-11T00:17:32.973Z,1017.26
2018-07-11T00:18:32.977Z,1017.3
2018-07-11T00:19:32.981Z,1017.25
2018-07-11T00:20:32.935Z,1017.17
2018-07-11T00:21:32.917Z,1017.24
2018-07-11T00:22:32.866Z,1017.19
2018-07-11T00:23:32.968Z,1017.16
2018-07-11T00:24:33.260Z,1017.25
2018-07-11T00:25:33.069Z,1017.23
2018-07-11T00:26:33.114Z,1017.24
2018-07-11T00:27:33.096Z,1017.2
2018-07-11T00:28:33.075Z,1017.22
2018-07-11T00:29:33.078Z,1017.2
2018-07-11T00:30:33.007Z,1017.2
2018-07-11T00:31:33.032Z,1017.21
2018-07-11T00:32:33.067Z,1017.17
2018-07-11T00:33:33.141Z,1017.2
2018-07-11T00:34:33.077Z,1017.19
2018-07-11T00:35:33.018Z,1017.2
2018-07-11T00:36:33.017Z,1017.2
2018-07-11T00:37:33.397Z,1017.17
2018-07-11T00:38:33.112Z,1017.18
2018-07-11T00:39:33.083Z,1017.17
2018-07-11T00:40:43.094Z,1017.2
2018-07-11T00:41:33.086Z,1017.16
2018-07-11T00:42:33.136Z,1017.16
2018-07-11T00:43:32.929Z,1017.16
2018-07-11T00:44:32.966Z,1017.18
2018-07-11T00:45:32.982Z,1017.19
2018-07-11T00:46:33.197Z,1017.23
2018-07-11T00:47:32.919Z,1017.26
2018-07-11T00:48:33.131Z,1017.26
2018-07-11T00:49:33.091Z,1017.25
2018-07-11T00:50:32.967Z,1017.26
2018-07-11T00:51:33.503Z,1017.27
2018-07-11T00:52:33.039Z,1017.27
2018-07-11T00:53:33.151Z,1017.23
2018-07-11T00:54:33.271Z,1017.26
2018-07-11T00:55:33.162Z,1017.22
2018-07-11T00:57:02.556Z,1017.22
2018-07-11T00:57:32.997Z,1017.19
2018-07-11T00:58:33.160Z,1017.17
2018-07-11T00:59:32.966Z,1017.2
2018-07-11T01:00:33.302Z,1017.17
2018-07-11T01:01:32.989Z,1017.21
2018-07-11T01:02:33.043Z,1017.18
2018-07-11T01:03:33.045Z,1017.17
2018-07-11T01:04:32.916Z,1017.19
2018-07-11T01:05:32.933Z,1017.2
2018-07-11T01:06:33.101Z,1017.24
2018-07-11T01:07:33.061Z,1017.2
2018-07-11T01:08:33.076Z,1017.25
2018-07-11T01:09:33.005Z,1017.25
2018-07-11T01:10:32.941Z,1017.25
2018-07-11T01:11:33.101Z,1017.23
2018-07-11T01:12:33.086Z,1017.26
2018-07-11T01:13:33.333Z,1017.25
2018-07-11T01:14:33.032Z,1017.24
2018-07-11T01:15:33.128Z,1017.19
2018-07-11T01:16:32.980Z,1017.25
2018-07-11T01:17:32.867Z,1017.24
2018-07-11T01:18:33.234Z,1017.29
2018-07-11T01:19:32.961Z,1017.28
2018-07-11T01:20:33.127Z,1017.29
2018-07-11T01:21:32.975Z,1017.28
2018-07-11T01:22:32.898Z,1017.3
2018-07-11T01:23:33.189Z,1017.28
2018-07-11T01:24:33.115Z,1017.31
2018-07-11T01:25:33.157Z,1017.3
2018-07-11T01:26:32.956Z,1017.3
2018-07-11T01:27:32.975Z,1017.33
2018-07-11T01:28:33.008Z,1017.33
2018-07-11T01:29:32.932Z,1017.35
2018-07-11T01:30:32.961Z,1017.33
2018-07-11T01:31:33.104Z,1017.31
2018-07-11T01:32:33.066Z,1017.34
2018-07-11T01:33:33.225Z,1017.35
2018-07-11T01:34:32.935Z,1017.35
2018-07-11T01:35:32.957Z,1017.35
2018-07-11T01:36:33.066Z,1017.34
2018-07-11T01:37:32.938Z,1017.33
2018-07-11T01:38:32.933Z,1017.34
2018-07-11T01:39:33.021Z,1017.38
2018-07-11T01:40:33.004Z,1017.39
2018-07-11T01:41:32.939Z,1017.41
2018-07-11T01:42:32.988Z,1017.36
2018-07-11T01:43:32.970Z,1017.39
2018-07-11T01:44:32.935Z,1017.39
2018-07-11T01:45:33.138Z,1017.38
2018-07-11T01:46:33.033Z,1017.42
2018-07-11T01:47:33.444Z,1017.39
2018-07-11T01:48:33.035Z,1017.4
2018-07-11T01:49:32.964Z,1017.38
2018-07-11T01:50:33.194Z,1017.41
2018-07-11T01:51:32.911Z,1017.36
2018-07-11T01:52:33.166Z,1017.37
2018-07-11T01:53:32.824Z,1017.35
2018-07-11T01:54:32.987Z,1017.34
2018-07-11T01:55:32.974Z,1017.28
2018-07-11T01:56:33.033Z,1017.26
2018-07-11T01:57:33.122Z,1017.29
2018-07-11T01:58:32.912Z,1017.29
2018-07-11T01:59:33.034Z,1017.31
2018-07-11T02:00:33.284Z,1017.28
2018-07-11T02:01:32.977Z,1017.31
2018-07-11T02:02:33.198Z,1017.34
2018-07-11T02:03:33.044Z,1017.33
2018-07-11T02:04:32.902Z,1017.28
2018-07-11T02:05:33.105Z,1017.31
2018-07-11T02:06:33.057Z,1017.32
2018-07-11T02:07:33.281Z,1017.28
2018-07-11T02:08:33.246Z,1017.28
2018-07-11T02:09:32.999Z,1017.28
2018-07-11T02:10:32.779Z,1017.25
2018-07-11T02:11:32.915Z,1017.24
2018-07-11T02:12:33.127Z,1017.23
2018-07-11T02:13:33.110Z,1017.23
2018-07-11T02:14:33.080Z,1017.21
2018-07-11T02:15:32.908Z,1017.25
2018-07-11T02:16:33.093Z,1017.16
2018-07-11T02:17:32.954Z,1017.2
2018-07-11T02:18:33.041Z,1017.22
2018-07-11T02:19:33.187Z,1017.24
2018-07-11T02:20:32.804Z,1017.21
2018-07-11T02:21:33.212Z,1017.22
2018-07-11T02:22:33.259Z,1017.24
2018-07-11T02:23:32.982Z,1017.24
2018-07-11T02:24:33.063Z,1017.25
2018-07-11T02:25:33.131Z,1017.27
2018-07-11T02:26:32.991Z,1017.27
2018-07-11T02:27:32.987Z,1017.25
2018-07-11T02:28:32.974Z,1017.29
2018-07-11T02:29:32.900Z,1017.23
2018-07-11T02:30:32.995Z,1017.25
2018-07-11T02:31:32.873Z,1017.28
2018-07-11T02:32:32.945Z,1017.28
2018-07-11T02:33:33.055Z,1017.32
2018-07-11T02:34:32.893Z,1017.32
2018-07-11T02:35:33.214Z,1017.32
2018-07-11T02:36:33.170Z,1017.37
2018-07-11T02:37:33.059Z,1017.33
2018-07-11T02:38:32.908Z,1017.33
2018-07-11T02:39:33.060Z,1017.32
2018-07-11T02:40:33.053Z,1017.33
2018-07-11T02:41:32.899Z,1017.32
2018-07-11T02:42:33.065Z,1017.37
2018-07-11T02:43:33.059Z,1017.34
2018-07-11T02:44:32.974Z,1017.39
2018-07-11T02:45:32.904Z,1017.36
2018-07-11T02:46:33.122Z,1017.36
2018-07-11T02:47:32.913Z,1017.36
2018-07-11T02:48:33.160Z,1017.36
2018-07-11T02:49:32.891Z,1017.38
2018-07-11T02:50:32.978Z,1017.4
2018-07-11T02:51:32.885Z,1017.4
2018-07-11T02:52:33.025Z,1017.41
2018-07-11T02:53:33.146Z,1017.41
2018-07-11T02:54:33.012Z,1017.44
2018-07-11T02:55:33.162Z,1017.41
2018-07-11T02:56:32.941Z,1017.41
2018-07-11T02:57:33.090Z,1017.42
2018-07-11T02:58:33.250Z,1017.4
2018-07-11T02:59:33.007Z,1017.41
2018-07-11T03:00:33.213Z,1017.43
2018-07-11T03:01:33.117Z,1017.45
2018-07-11T03:02:33.009Z,1017.4
2018-07-11T03:03:33.183Z,1017.4
2018-07-11T03:04:33.120Z,1017.41
2018-07-11T03:05:32.869Z,1017.39
2018-07-11T03:06:33.151Z,1017.41
2018-07-11T03:07:32.960Z,1017.42
2018-07-11T03:08:33.042Z,1017.39
2018-07-11T03:09:33.061Z,1017.39
2018-07-11T03:10:32.848Z,1017.39
2018-07-11T03:11:33.052Z,1017.39
2018-07-11T03:12:33.002Z,1017.41
2018-07-11T03:13:33.183Z,1017.39
2018-07-11T03:14:32.915Z,1017.42
2018-07-11T03:15:32.954Z,1017.38
2018-07-11T03:16:33.198Z,1017.42
2018-07-11T03:17:33.101Z,1017.45
2018-07-11T03:18:32.966Z,1017.44
2018-07-11T03:19:33.135Z,1017.44
2018-07-11T03:20:33.091Z,1017.43
2018-07-11T03:21:32.940Z,1017.39
2018-07-11T03:22:33.016Z,1017.41
2018-07-11T03:23:32.883Z,1017.42
2018-07-11T03:24:32.911Z,1017.45
2018-07-11T03:25:33.140Z,1017.42
2018-07-11T03:26:32.996Z,1017.43
2018-07-11T03:27:33.061Z,1017.4
2018-07-11T03:28:32.878Z,1017.47
2018-07-11T03:29:32.993Z,1017.47
2018-07-11T03:30:32.950Z,1017.48
2018-07-11T03:31:32.987Z,1017.49
2018-07-11T03:32:33.103Z,1017.5
2018-07-11T03:33:33.030Z,1017.51
2018-07-11T03:34:32.942Z,1017.52
2018-07-11T03:35:32.984Z,1017.54
2018-07-11T03:36:33.062Z,1017.54
2018-07-11T03:37:33.287Z,1017.51
2018-07-11T03:38:33.055Z,1017.51
2018-07-11T03:39:32.989Z,1017.57
2018-07-11T03:40:33.105Z,1017.55
2018-07-11T03:41:32.996Z,1017.53
2018-07-11T03:42:33.066Z,1017.51
2018-07-11T03:43:32.815Z,1017.54
2018-07-11T03:44:33.164Z,1017.55
2018-07-11T03:45:33.082Z,1017.56
2018-07-11T03:46:32.949Z,1017.55
2018-07-11T03:47:32.956Z,1017.54
2018-07-11T03:48:32.901Z,1017.54
2018-07-11T03:49:33.101Z,1017.6
2018-07-11T03:50:32.823Z,1017.59
2018-07-11T03:51:33.161Z,1017.57
2018-07-11T03:52:32.877Z,1017.55
2018-07-11T03:53:32.995Z,1017.52
2018-07-11T03:54:32.745Z,1017.53
2018-07-11T03:55:33.003Z,1017.54
2018-07-11T03:56:33.068Z,1017.56
2018-07-11T03:57:32.993Z,1017.51
2018-07-11T03:58:33.114Z,1017.59
2018-07-11T03:59:33.075Z,1017.53
2018-07-11T04:00:33.056Z,1017.58
2018-07-11T04:01:32.821Z,1017.6
2018-07-11T04:02:32.933Z,1017.55
2018-07-11T04:03:32.853Z,1017.61
2018-07-11T04:04:33.010Z,1017.63
2018-07-11T04:05:33.165Z,1017.63
2018-07-11T04:06:33.055Z,1017.64
2018-07-11T04:07:33.154Z,1017.64
2018-07-11T04:08:32.942Z,1017.67
2018-07-11T04:09:33.157Z,1017.64
2018-07-11T04:10:32.884Z,1017.59
2018-07-11T04:11:33.068Z,1017.63
2018-07-11T04:12:32.896Z,1017.66
2018-07-11T04:13:33.015Z,1017.63
2018-07-11T04:14:33.008Z,1017.65
2018-07-11T04:15:33.126Z,1017.64
2018-07-11T04:16:33.195Z,1017.66
2018-07-11T04:17:32.836Z,1017.7
2018-07-11T04:18:33.209Z,1017.71
2018-07-11T04:19:32.853Z,1017.69
2018-07-11T04:20:33.079Z,1017.71
2018-07-11T04:21:33.226Z,1017.71
2018-07-11T04:22:32.939Z,1017.72
2018-07-11T04:23:33.049Z,1017.74
2018-07-11T04:24:33.005Z,1017.75
2018-07-11T04:25:33.103Z,1017.72
2018-07-11T04:26:32.955Z,1017.71
2018-07-11T04:27:33.067Z,1017.74
2018-07-11T04:28:32.923Z,1017.77
2018-07-11T04:29:33.011Z,1017.77
2018-07-11T04:30:33.103Z,1017.77
2018-07-11T04:31:32.958Z,1017.83
2018-07-11T04:32:33.103Z,1017.81
2018-07-11T04:33:33.538Z,1017.85
2018-07-11T04:34:33.189Z,1017.87
2018-07-11T04:35:33.170Z,1017.89
2018-07-11T04:36:33.039Z,1017.87
2018-07-11T04:37:32.885Z,1017.86
2018-07-11T04:38:32.856Z,1017.89
2018-07-11T04:39:32.862Z,1017.89
2018-07-11T04:40:33.185Z,1017.89
2018-07-11T04:41:32.913Z,1017.89
2018-07-11T04:42:33.285Z,1017.88
2018-07-11T04:43:33.104Z,1017.89
2018-07-11T04:44:32.996Z,1017.9
2018-07-11T04:45:33.047Z,1017.92
2018-07-11T04:46:32.768Z,1017.94
2018-07-11T04:47:32.945Z,1017.92
2018-07-11T04:48:33.319Z,1017.96
2018-07-11T04:49:33.151Z,1017.91
2018-07-11T04:50:33.151Z,1017.92
2018-07-11T04:51:32.981Z,1017.97
2018-07-11T04:52:33.204Z,1017.92
2018-07-11T04:53:33.193Z,1017.93
2018-07-11T04:54:33.054Z,1017.91
2018-07-11T04:55:32.824Z,1017.9
2018-07-11T04:56:33.030Z,1017.95
2018-07-11T04:57:32.987Z,1017.96
2018-07-11T04:58:33.205Z,1017.96
2018-07-11T04:59:33.020Z,1018
2018-07-11T05:00:33.148Z,1018.01
2018-07-11T05:01:32.819Z,1018.02
2018-07-11T05:02:32.934Z,1018
2018-07-11T05:03:33.049Z,1018.02
2018-07-11T05:04:32.855Z,1018.01
2018-07-11T05:05:33.025Z,1018.05
2018-07-11T05:06:33.070Z,1018.05
2018-07-11T05:07:33.042Z,1018
2018-07-11T05:08:32.984Z,1018.05
2018-07-11T05:09:32.896Z,1018.01
2018-07-11T05:10:33.046Z,1018.01
2018-07-11T05:11:32.925Z,1018.02
2018-07-11T05:12:32.925Z,1018.02
2018-07-11T05:13:32.825Z,1017.97
2018-07-11T05:14:32.951Z,1018.02
2018-07-11T05:15:33.111Z,1018.03
2018-07-11T05:16:33.143Z,1018.02
2018-07-11T05:17:32.948Z,1018.06
2018-07-11T05:18:32.962Z,1018.11
2018-07-11T05:19:32.965Z,1018.09
2018-07-11T05:20:32.990Z,1018.12
2018-07-11T05:21:32.886Z,1018.1
2018-07-11T05:22:32.805Z,1018.07
2018-07-11T05:23:32.936Z,1018.14
2018-07-11T05:24:32.879Z,1018.1
2018-07-11T05:25:33.016Z,1018.13
2018-07-11T05:26:33.100Z,1018.11
2018-07-11T05:27:33.570Z,1018.09
2018-07-11T05:28:33.016Z,1018.1
2018-07-11T05:29:33.066Z,1018.1
2018-07-11T05:30:32.978Z,1018.15
2018-07-11T05:31:32.909Z,1018.09
2018-07-11T05:32:33.012Z,1018.15
2018-07-11T05:33:33.295Z,1018.11
2018-07-11T05:34:32.931Z,1018.12
2018-07-11T05:35:33.153Z,1018.13
2018-07-11T05:36:33.001Z,1018.13
2018-07-11T05:37:32.907Z,1018.1
2018-07-11T05:38:32.979Z,1018.12
2018-07-11T05:39:32.945Z,1018.12
2018-07-11T05:40:32.869Z,1018.17
2018-07-11T05:41:33.132Z,1018.16
2018-07-11T05:42:33.048Z,1018.16
2018-07-11T05:43:33.113Z,1018.16
2018-07-11T05:44:32.881Z,1018.11
2018-07-11T05:45:33.023Z,1018.14
2018-07-11T05:46:33.158Z,1018.15
2018-07-11T05:47:33.019Z,1018.14
2018-07-11T05:48:32.865Z,1018.18
2018-07-11T05:49:32.787Z,1018.18
2018-07-11T05:50:33.073Z,1018.19
2018-07-11T05:51:33.000Z,1018.18
2018-07-11T05:52:33.175Z,1018.18
2018-07-11T05:53:33.066Z,1018.17
2018-07-11T05:54:33.022Z,1018.2
2018-07-11T05:55:33.115Z,1018.21
2018-07-11T05:56:33.048Z,1018.19
2018-07-11T05:57:32.923Z,1018.21
2018-07-11T05:58:42.965Z,1018.2
2018-07-11T05:59:32.993Z,1018.24
2018-07-11T06:00:33.047Z,1018.21
2018-07-11T06:01:32.900Z,1018.26
2018-07-11T06:02:33.020Z,1018.26
2018-07-11T06:03:33.020Z,1018.28
2018-07-11T06:04:33.064Z,1018.3
2018-07-11T06:05:33.297Z,1018.3
2018-07-11T06:06:32.933Z,1018.32
2018-07-11T06:07:33.128Z,1018.3
2018-07-11T06:08:32.987Z,1018.29
2018-07-11T06:09:32.860Z,1018.29
2018-07-11T06:10:32.876Z,1018.3
2018-07-11T06:11:33.037Z,1018.32
2018-07-11T06:12:34.007Z,1018.35
2018-07-11T06:13:33.026Z,1018.34
2018-07-11T06:14:32.875Z,1018.32
2018-07-11T06:15:33.000Z,1018.3
2018-07-11T06:16:32.923Z,1018.34
2018-07-11T06:17:32.890Z,1018.35
2018-07-11T06:18:33.085Z,1018.32
2018-07-11T06:19:33.425Z,1018.32
2018-07-11T06:20:33.048Z,1018.33
2018-07-11T06:21:32.944Z,1018.32
2018-07-11T06:22:33.021Z,1018.35
2018-07-11T06:23:32.807Z,1018.35
2018-07-11T06:24:34.120Z,1018.39
2018-07-11T06:25:32.978Z,1018.43
2018-07-11T06:26:32.905Z,1018.36
2018-07-11T06:27:32.990Z,1018.38
2018-07-11T06:28:32.833Z,1018.4
2018-07-11T06:29:33.071Z,1018.38
2018-07-11T06:30:33.072Z,1018.4
2018-07-11T06:31:33.027Z,1018.41
2018-07-11T06:32:32.774Z,1018.42
2018-07-11T06:33:34.578Z,1018.43
2018-07-11T06:34:33.377Z,1018.44
2018-07-11T06:35:35.661Z,1018.43
2018-07-11T06:36:33.002Z,1018.43
2018-07-11T06:37:32.898Z,1018.44
2018-07-11T06:38:33.113Z,1018.44
2018-07-11T06:39:32.794Z,1018.46
2018-07-11T06:40:32.983Z,1018.5
2018-07-11T06:41:32.948Z,1018.48
2018-07-11T06:42:32.917Z,1018.55
2018-07-11T06:43:32.963Z,1018.51
2018-07-11T06:44:33.519Z,1018.54
2018-07-11T06:45:33.177Z,1018.6
2018-07-11T06:46:32.844Z,1018.57
2018-07-11T06:47:32.920Z,1018.55
2018-07-11T06:48:33.176Z,1018.55
2018-07-11T06:49:32.950Z,1018.61
2018-07-11T06:50:43.110Z,1018.61
2018-07-11T06:51:32.992Z,1018.62
2018-07-11T06:52:32.930Z,1018.62
2018-07-11T06:53:33.065Z,1018.61
2018-07-11T06:54:33.072Z,1018.61
2018-07-11T06:55:33.011Z,1018.62
2018-07-11T06:56:32.940Z,1018.64
2018-07-11T06:57:33.104Z,1018.63
2018-07-11T06:58:33.139Z,1018.61
2018-07-11T06:59:32.789Z,1018.64
2018-07-11T07:00:32.882Z,1018.68
2018-07-11T07:01:32.869Z,1018.63
2018-07-11T07:02:33.036Z,1018.66
2018-07-11T07:03:33.298Z,1018.65
2018-07-11T07:04:32.846Z,1018.63
2018-07-11T07:05:32.980Z,1018.65
2018-07-11T07:06:32.766Z,1018.66
2018-07-11T07:07:32.983Z,1018.64
2018-07-11T07:08:32.966Z,1018.66
2018-07-11T07:09:33.118Z,1018.64
2018-07-11T07:10:32.877Z,1018.65
2018-07-11T07:11:32.950Z,1018.68
2018-07-11T07:12:32.849Z,1018.66
2018-07-11T07:13:33.041Z,1018.66
2018-07-11T07:14:32.970Z,1018.69
2018-07-11T07:15:32.787Z,1018.67
2018-07-11T07:16:33.156Z,1018.69
2018-07-11T07:17:33.284Z,1018.64
2018-07-11T07:18:33.677Z,1018.65
2018-07-11T07:19:33.543Z,1018.65
2018-07-11T07:20:33.660Z,1018.63
2018-07-11T07:21:33.608Z,1018.63
2018-07-11T07:22:34.091Z,1018.61
2018-07-11T07:23:33.512Z,1018.64
2018-07-11T07:24:33.484Z,1018.61
2018-07-11T07:25:34.541Z,1018.59
2018-07-11T07:26:33.613Z,1018.58
2018-07-11T07:27:33.635Z,1018.62
2018-07-11T07:28:33.488Z,1018.61
2018-07-11T07:29:33.674Z,1018.66
2018-07-11T07:30:32.979Z,1018.67
2018-07-11T07:31:33.641Z,1018.7
2018-07-11T07:32:33.599Z,1018.65
2018-07-11T07:33:33.415Z,1018.65
2018-07-11T07:34:34.810Z,1018.67
2018-07-11T07:35:33.533Z,1018.64
2018-07-11T07:36:34.423Z,1018.62
2018-07-11T07:37:34.445Z,1018.66
2018-07-11T07:38:33.394Z,1018.58
2018-07-11T07:39:34.842Z,1018.64
2018-07-11T07:40:33.634Z,1018.66
2018-07-11T07:41:33.664Z,1018.64
2018-07-11T07:43:02.977Z,1018.6
2018-07-11T07:43:33.343Z,1018.7
2018-07-11T07:44:33.497Z,1018.66
2018-07-11T07:45:33.319Z,1018.69
2018-07-11T07:46:33.651Z,1018.68
2018-07-11T07:47:33.785Z,1018.66
2018-07-11T07:48:33.699Z,1018.69
2018-07-11T07:49:33.682Z,1018.71
2018-07-11T07:50:33.438Z,1018.7
2018-07-11T07:51:33.467Z,1018.74
2018-07-11T07:52:33.397Z,1018.68
2018-07-11T07:53:33.624Z,1018.73
2018-07-11T07:54:33.454Z,1018.68
2018-07-11T07:55:33.713Z,1018.61
2018-07-11T07:56:33.391Z,1018.68
2018-07-11T07:57:34.472Z,1018.72
2018-07-11T07:58:34.916Z,1018.72
2018-07-11T07:59:34.807Z,1018.75
2018-07-11T08:00:33.425Z,1018.66
2018-07-11T08:01:33.717Z,1018.73
2018-07-11T08:02:33.458Z,1018.72
2018-07-11T08:03:34.153Z,1018.77
2018-07-11T08:04:33.509Z,1018.76
2018-07-11T08:05:33.831Z,1018.71
2018-07-11T08:06:35.033Z,1018.69
2018-07-11T08:07:33.459Z,1018.73
2018-07-11T08:08:33.537Z,1018.71
2018-07-11T08:09:33.326Z,1018.69
2018-07-11T08:10:33.707Z,1018.67
2018-07-11T08:11:34.501Z,1018.68
2018-07-11T08:12:33.196Z,1018.67
2018-07-11T08:13:33.668Z,1018.66
2018-07-11T08:14:33.931Z,1018.65
2018-07-11T08:15:34.606Z,1018.64
2018-07-11T08:16:35.020Z,1018.66
2018-07-11T08:17:33.018Z,1018.62
2018-07-11T08:18:33.633Z,1018.65
2018-07-11T08:19:33.961Z,1018.67
2018-07-11T08:20:32.807Z,1018.65
2018-07-11T08:21:33.207Z,1018.64
2018-07-11T08:22:32.752Z,1018.61
2018-07-11T08:23:32.784Z,1018.64
2018-07-11T08:24:33.414Z,1018.61
2018-07-11T08:25:33.871Z,1018.64
2018-07-11T08:26:32.852Z,1018.62
2018-07-11T08:27:33.165Z,1018.63
2018-07-11T08:28:32.822Z,1018.6
2018-07-11T08:29:33.827Z,1018.62
2018-07-11T08:30:32.893Z,1018.58
2018-07-11T08:31:33.984Z,1018.6
2018-07-11T08:32:32.773Z,1018.6
2018-07-11T08:33:33.868Z,1018.61
2018-07-11T08:34:33.144Z,1018.57
2018-07-11T08:35:33.466Z,1018.57
2018-07-11T08:36:33.824Z,1018.61
2018-07-11T08:37:33.263Z,1018.61
2018-07-11T08:38:32.823Z,1018.61
2018-07-11T08:39:33.169Z,1018.61
2018-07-11T08:40:33.734Z,1018.59
2018-07-11T08:41:34.028Z,1018.67
2018-07-11T08:42:33.425Z,1018.65
2018-07-11T08:43:32.764Z,1018.66
2018-07-11T08:44:32.868Z,1018.67
2018-07-11T08:45:32.958Z,1018.65
2018-07-11T08:46:32.884Z,1018.68
2018-07-11T08:47:32.876Z,1018.7
2018-07-11T08:48:32.758Z,1018.73
2018-07-11T08:49:32.987Z,1018.77
2018-07-11T08:50:32.863Z,1018.79
2018-07-11T08:51:32.860Z,1018.81
2018-07-11T08:52:32.885Z,1018.81
2018-07-11T08:53:33.012Z,1018.82
2018-07-11T08:54:32.833Z,1018.84
2018-07-11T08:55:32.758Z,1018.81
2018-07-11T08:56:32.839Z,1018.85
2018-07-11T08:57:32.794Z,1018.84
2018-07-11T08:58:32.780Z,1018.9
2018-07-11T08:59:32.867Z,1018.9
2018-07-11T09:00:32.786Z,1018.88
2018-07-11T09:01:32.879Z,1018.92
2018-07-11T09:02:32.996Z,1018.92
2018-07-11T09:03:32.988Z,1018.95
2018-07-11T09:04:32.764Z,1018.94
2018-07-11T09:05:33.785Z,1018.94
2018-07-11T09:06:32.771Z,1018.94
2018-07-11T09:07:32.981Z,1018.95
2018-07-11T09:08:32.959Z,1018.96
2018-07-11T09:09:32.943Z,1018.97
2018-07-11T09:10:33.855Z,1018.96
2018-07-11T09:11:34.069Z,1018.96
2018-07-11T09:12:32.962Z,1018.97
2018-07-11T09:13:32.965Z,1018.97
2018-07-11T09:14:32.871Z,1018.97
2018-07-11T09:15:32.683Z,1018.96
2018-07-11T09:16:32.965Z,1018.98
2018-07-11T09:17:33.316Z,1019
2018-07-11T09:18:32.873Z,1018.98
2018-07-11T09:19:35.502Z,1018.95
2018-07-11T09:20:32.940Z,1018.95
2018-07-11T09:21:32.816Z,1018.99
2018-07-11T09:22:32.964Z,1018.97
2018-07-11T09:23:32.779Z,1019
2018-07-11T09:24:32.936Z,1018.99
2018-07-11T09:25:33.177Z,1019.02
2018-07-11T09:26:32.889Z,1019.01
2018-07-11T09:27:32.984Z,1019.03
2018-07-11T09:28:32.951Z,1019.02
2018-07-11T09:29:32.862Z,1019.03
2018-07-11T09:30:33.388Z,1019
2018-07-11T09:31:32.824Z,1019.01
2018-07-11T09:32:32.923Z,1019.03
2018-07-11T09:33:35.323Z,1019.02
2018-07-11T09:34:32.797Z,1019.07
2018-07-11T09:35:33.006Z,1019.05
2018-07-11T09:36:32.925Z,1019.05
2018-07-11T09:37:33.130Z,1019.05
2018-07-11T09:38:32.882Z,1019.06
2018-07-11T09:39:32.814Z,1019.07
2018-07-11T09:40:32.853Z,1019.1
2018-07-11T09:41:32.840Z,1019.12
2018-07-11T09:42:32.940Z,1019.11
2018-07-11T09:43:32.933Z,1019.12
2018-07-11T09:44:32.960Z,1019.11
2018-07-11T09:45:33.268Z,1019.14
2018-07-11T09:46:33.062Z,1019.11
2018-07-11T09:47:32.875Z,1019.12
2018-07-11T09:48:33.036Z,1019.14
2018-07-11T09:49:33.252Z,1019.12
2018-07-11T09:50:32.851Z,1019.1
2018-07-11T09:51:34.912Z,1019.12
2018-07-11T09:52:32.804Z,1019.15
2018-07-11T09:53:35.232Z,1019.14
2018-07-11T09:54:32.894Z,1019.14
2018-07-11T09:55:32.843Z,1019.12
2018-07-11T09:56:35.104Z,1019.14
2018-07-11T09:57:32.927Z,1019.15
2018-07-11T09:58:32.814Z,1019.18
2018-07-11T09:59:32.860Z,1019.17
2018-07-11T10:00:32.813Z,1019.13
2018-07-11T10:01:32.963Z,1019.16
2018-07-11T10:02:32.960Z,1019.18
2018-07-11T10:03:32.883Z,1019.16
2018-07-11T10:04:32.812Z,1019.19
2018-07-11T10:05:32.888Z,1019.25
2018-07-11T10:06:32.986Z,1019.22
2018-07-11T10:07:33.004Z,1019.26
2018-07-11T10:08:32.900Z,1019.24
2018-07-11T10:09:42.882Z,1019.22
2018-07-11T10:10:32.975Z,1019.18
2018-07-11T10:11:35.247Z,1019.22
2018-07-11T10:12:35.584Z,1019.19
2018-07-11T10:13:32.961Z,1019.22
2018-07-11T10:14:32.978Z,1019.24
2018-07-11T10:15:32.863Z,1019.2
2018-07-11T10:16:32.987Z,1019.27
2018-07-11T10:17:33.024Z,1019.21
2018-07-11T10:18:34.519Z,1019.23
2018-07-11T10:19:33.653Z,1019.24
2018-07-11T10:20:33.556Z,1019.27
2018-07-11T10:21:33.704Z,1019.24
2018-07-11T10:22:33.678Z,1019.25
2018-07-11T10:23:33.332Z,1019.25
2018-07-11T10:24:33.706Z,1019.24
2018-07-11T10:25:33.506Z,1019.22
2018-07-11T10:26:34.573Z,1019.21
2018-07-11T10:27:34.881Z,1019.23
2018-07-11T10:28:33.611Z,1019.22
2018-07-11T10:29:33.433Z,1019.19
2018-07-11T10:30:33.458Z,1019.17
2018-07-11T10:31:34.536Z,1019.2
2018-07-11T10:32:33.452Z,1019.17
2018-07-11T10:33:33.582Z,1019.19
2018-07-11T10:34:33.406Z,1019.16
2018-07-11T10:35:33.569Z,1019.2
2018-07-11T10:36:33.596Z,1019.21
2018-07-11T10:37:34.767Z,1019.22
2018-07-11T10:38:33.479Z,1019.21
2018-07-11T10:39:33.561Z,1019.19
2018-07-11T10:40:33.721Z,1019.2
2018-07-11T10:41:33.637Z,1019.18
2018-07-11T10:42:33.625Z,1019.2
2018-07-11T10:43:34.168Z,1019.19
2018-07-11T10:44:33.566Z,1019.17
2018-07-11T10:45:33.483Z,1019.17
2018-07-11T10:46:33.543Z,1019.18
2018-07-11T10:47:33.444Z,1019.16
2018-07-11T10:48:33.684Z,1019.12
2018-07-11T10:49:33.642Z,1019.1
2018-07-11T10:50:34.795Z,1019.13
2018-07-11T10:51:34.814Z,1019.07
2018-07-11T10:52:33.650Z,1019.1
2018-07-11T10:53:33.501Z,1019.06
2018-07-11T10:54:33.183Z,1019.04
2018-07-11T10:55:33.547Z,1019.02
2018-07-11T10:56:34.560Z,1018.98
2018-07-11T10:57:33.455Z,1019.04
2018-07-11T10:58:33.574Z,1019.06
2018-07-11T10:59:33.597Z,1019.04
2018-07-11T11:00:37.320Z,1019.01
2018-07-11T11:01:34.195Z,1019.02
2018-07-11T11:02:35.049Z,1018.98
2018-07-11T11:03:33.189Z,1018.96
2018-07-11T11:04:34.748Z,1018.96
2018-07-11T11:05:33.215Z,1018.98
2018-07-11T11:06:33.521Z,1018.92
2018-07-11T11:07:33.477Z,1018.92
2018-07-11T11:08:33.690Z,1018.95
2018-07-11T11:09:33.502Z,1018.93
2018-07-11T11:10:34.299Z,1018.97
2018-07-11T11:11:33.591Z,1018.97
2018-07-11T11:12:33.527Z,1018.93
2018-07-11T11:13:33.673Z,1018.94
2018-07-11T11:14:33.375Z,1018.93
2018-07-11T11:15:33.528Z,1018.94
2018-07-11T11:16:33.408Z,1018.92
2018-07-11T11:17:32.836Z,1018.89
2018-07-11T11:18:32.991Z,1018.9
2018-07-11T11:19:32.956Z,1018.9
2018-07-11T11:20:32.957Z,1018.87
2018-07-11T11:21:32.750Z,1018.84
2018-07-11T11:22:32.757Z,1018.86
2018-07-11T11:23:32.956Z,1018.86
2018-07-11T11:24:32.737Z,1018.8
2018-07-11T11:25:32.914Z,1018.77
2018-07-11T11:26:32.816Z,1018.73
2018-07-11T11:27:32.802Z,1018.76
2018-07-11T11:28:32.904Z,1018.75
2018-07-11T11:29:32.893Z,1018.79
2018-07-11T11:30:32.632Z,1018.79
2018-07-11T11:31:32.729Z,1018.79
2018-07-11T11:32:32.912Z,1018.8
2018-07-11T11:33:32.950Z,1018.77
2018-07-11T11:34:32.884Z,1018.75
2018-07-11T11:35:33.029Z,1018.7
2018-07-11T11:36:32.719Z,1018.75
2018-07-11T11:37:32.798Z,1018.75
2018-07-11T11:38:32.774Z,1018.75
2018-07-11T11:39:32.742Z,1018.76
2018-07-11T11:40:32.895Z,1018.75
2018-07-11T11:41:33.408Z,1018.75
2018-07-11T11:42:34.427Z,1018.73
2018-07-11T11:43:32.909Z,1018.74
2018-07-11T11:44:32.907Z,1018.75
2018-07-11T11:45:33.000Z,1018.69
2018-07-11T11:46:32.892Z,1018.72
2018-07-11T11:47:32.959Z,1018.7
2018-07-11T11:48:32.730Z,1018.72
2018-07-11T11:49:32.891Z,1018.73
2018-07-11T11:50:32.961Z,1018.69
2018-07-11T11:51:32.913Z,1018.75
2018-07-11T11:52:32.825Z,1018.74
2018-07-11T11:53:32.711Z,1018.8
2018-07-11T11:54:32.702Z,1018.78
2018-07-11T11:55:32.772Z,1018.76
2018-07-11T11:56:32.838Z,1018.74
2018-07-11T11:57:32.656Z,1018.79
2018-07-11T11:58:33.207Z,1018.79
2018-07-11T11:59:32.901Z,1018.84
2018-07-11T12:00:32.726Z,1018.84
2018-07-11T12:01:32.841Z,1018.86
2018-07-11T12:02:33.057Z,1018.87
2018-07-11T12:03:32.911Z,1018.89
2018-07-11T12:04:32.930Z,1018.86
2018-07-11T12:05:32.932Z,1018.93
2018-07-11T12:06:32.749Z,1018.93
2018-07-11T12:07:32.761Z,1018.91
2018-07-11T12:08:32.720Z,1018.89